Forside
METAR-TAF:

METAR-TAF

Lufthavne :

Yamagata, Japan

Breddekreds: 38-25N, længdekreds: 140-22E, højde: 105 m

Aktuelle vejr

Denne rapport blev lavet for 1 time og 2 minutter siden, kl. 02:00 UTC
Vind 6 kt fra vestsydvest, varierende mellem sydsydøst og nordnordvest
Temperatur 25°C
Fugtighed 57%
Tryk 1009 hPa
Sigt 10 km eller mere
Nogle få skyer i en højde af 4000 ft
Spredte skyer i en højde af 5000 ft
Brudte skyer

METAR: RJSC 250200Z 25006KT 150V330 9999 FEW040 SCT050 BKN/// 25/16 Q1009

Tid: 12:02 (03:02 UTC)


TAF: fraværende

Vejrobservationer og prognoser fra mere end 4000 lufthavne (METAR og TAF).

De gule og røde prikker repræsenterer de meteorologiske stationer.

Flyt musen over at se navnet på stationen.

Så klik over at se vejr observationer og prognoser.

At skifte det kort: Klik på de grønne knapper med et sort kors for at zoome ind; på den grønne knap med en bindestreg for at zoome ud; eller på de grønne pile for tilstødende kort.


METAR-TAF: